sensor_id;sensor_type;location;lat;lon;timestamp;P1;durP1;ratioP1;P2;durP2;ratioP2
72761;SDS011;60886;55.034;73.150;2022-10-16T00:01:28;28.02;;;13.90;;
72761;SDS011;60886;55.034;73.150;2022-10-16T00:03:57;28.95;;;13.40;;
72761;SDS011;60886;55.034;73.150;2022-10-16T00:06:25;25.88;;;13.45;;
72761;SDS011;60886;55.034;73.150;2022-10-16T00:08:52;24.30;;;12.38;;
72761;SDS011;60886;55.034;73.150;2022-10-16T00:11:20;23.70;;;11.93;;
72761;SDS011;60886;55.034;73.150;2022-10-16T00:13:49;27.67;;;11.88;;
72761;SDS011;60886;55.034;73.150;2022-10-16T00:16:17;24.33;;;11.93;;
72761;SDS011;60886;55.034;73.150;2022-10-16T00:18:45;24.13;;;11.43;;
72761;SDS011;60886;55.034;73.150;2022-10-16T00:21:16;26.40;;;11.57;;
72761;SDS011;60886;55.034;73.150;2022-10-16T00:24:04;24.73;;;12.67;;
72761;SDS011;60886;55.034;73.150;2022-10-16T00:26:34;25.20;;;12.45;;
72761;SDS011;60886;55.034;73.150;2022-10-16T00:29:01;27.92;;;13.27;;
72761;SDS011;60886;55.034;73.150;2022-10-16T00:31:28;28.83;;;14.32;;
72761;SDS011;60886;55.034;73.150;2022-10-16T00:33:55;25.73;;;13.45;;
72761;SDS011;60886;55.034;73.150;2022-10-16T00:36:22;24.87;;;13.77;;
72761;SDS011;60886;55.034;73.150;2022-10-16T00:38:53;25.73;;;13.65;;
72761;SDS011;60886;55.034;73.150;2022-10-16T00:41:23;26.90;;;14.13;;
72761;SDS011;60886;55.034;73.150;2022-10-16T00:43:52;30.08;;;13.55;;
72761;SDS011;60886;55.034;73.150;2022-10-16T00:46:25;25.90;;;12.27;;
72761;SDS011;60886;55.034;73.150;2022-10-16T00:49:02;25.75;;;12.25;;
72761;SDS011;60886;55.034;73.150;2022-10-16T00:51:41;22.73;;;11.77;;
72761;SDS011;60886;55.034;73.150;2022-10-16T00:54:10;23.80;;;12.55;;
72761;SDS011;60886;55.034;73.150;2022-10-16T00:56:43;26.65;;;12.27;;
72761;SDS011;60886;55.034;73.150;2022-10-16T00:59:14;32.17;;;12.27;;
72761;SDS011;60886;55.034;73.150;2022-10-16T01:01:45;24.53;;;12.03;;
72761;SDS011;60886;55.034;73.150;2022-10-16T01:04:11;23.30;;;11.98;;
72761;SDS011;60886;55.034;73.150;2022-10-16T01:09:24;23.40;;;12.43;;
72761;SDS011;60886;55.034;73.150;2022-10-16T01:11:54;25.70;;;11.82;;
72761;SDS011;60886;55.034;73.150;2022-10-16T01:14:39;21.83;;;10.60;;
72761;SDS011;60886;55.034;73.150;2022-10-16T01:17:41;20.88;;;10.68;;
72761;SDS011;60886;55.034;73.150;2022-10-16T01:20:28;20.52;;;11.35;;
72761;SDS011;60886;55.034;73.150;2022-10-16T01:28:21;38.53;;;13.50;;
72761;SDS011;60886;55.034;73.150;2022-10-16T01:30:59;49.85;;;15.27;;
72761;SDS011;60886;55.034;73.150;2022-10-16T01:33:28;58.63;;;20.30;;
72761;SDS011;60886;55.034;73.150;2022-10-16T01:36:06;49.33;;;16.48;;
72761;SDS011;60886;55.034;73.150;2022-10-16T01:38:42;45.00;;;15.60;;
72761;SDS011;60886;55.034;73.150;2022-10-16T01:41:15;42.93;;;15.97;;
72761;SDS011;60886;55.034;73.150;2022-10-16T01:43:57;41.72;;;15.55;;
72761;SDS011;60886;55.034;73.150;2022-10-16T01:46:30;40.78;;;16.58;;
72761;SDS011;60886;55.034;73.150;2022-10-16T01:48:59;36.10;;;16.13;;
72761;SDS011;60886;55.034;73.150;2022-10-16T01:51:27;30.80;;;15.05;;
72761;SDS011;60886;55.034;73.150;2022-10-16T01:53:55;28.23;;;14.43;;
72761;SDS011;60886;55.034;73.150;2022-10-16T01:56:25;35.55;;;15.25;;
72761;SDS011;60886;55.034;73.150;2022-10-16T01:58:55;28.98;;;14.65;;
72761;SDS011;60886;55.034;73.150;2022-10-16T02:01:37;30.00;;;14.10;;
72761;SDS011;60886;55.034;73.150;2022-10-16T02:04:15;28.92;;;15.93;;
72761;SDS011;60886;55.034;73.150;2022-10-16T02:07:04;28.93;;;13.53;;
72761;SDS011;60886;55.034;73.150;2022-10-16T02:09:32;26.60;;;12.25;;
72761;SDS011;60886;55.034;73.150;2022-10-16T02:12:01;26.60;;;12.68;;
72761;SDS011;60886;55.034;73.150;2022-10-16T02:14:35;24.98;;;11.18;;
72761;SDS011;60886;55.034;73.150;2022-10-16T02:17:09;25.50;;;11.93;;
72761;SDS011;60886;55.034;73.150;2022-10-16T02:19:38;23.80;;;11.63;;
72761;SDS011;60886;55.034;73.150;2022-10-16T02:22:14;22.38;;;11.18;;
72761;SDS011;60886;55.034;73.150;2022-10-16T02:24:49;23.63;;;11.63;;
72761;SDS011;60886;55.034;73.150;2022-10-16T02:32:56;29.77;;;13.70;;
72761;SDS011;60886;55.034;73.150;2022-10-16T02:35:26;33.30;;;14.05;;
72761;SDS011;60886;55.034;73.150;2022-10-16T02:37:54;33.80;;;14.25;;
72761;SDS011;60886;55.034;73.150;2022-10-16T02:40:22;31.83;;;14.18;;
72761;SDS011;60886;55.034;73.150;2022-10-16T02:42:53;32.65;;;14.73;;
72761;SDS011;60886;55.034;73.150;2022-10-16T02:45:20;32.00;;;14.70;;
72761;SDS011;60886;55.034;73.150;2022-10-16T02:47:47;32.42;;;16.38;;
72761;SDS011;60886;55.034;73.150;2022-10-16T02:50:14;31.60;;;15.75;;
72761;SDS011;60886;55.034;73.150;2022-10-16T02:52:41;27.48;;;15.60;;
72761;SDS011;60886;55.034;73.150;2022-10-16T02:55:08;26.77;;;14.40;;
72761;SDS011;60886;55.034;73.150;2022-10-16T02:57:34;30.30;;;13.50;;
72761;SDS011;60886;55.034;73.150;2022-10-16T03:00:03;26.17;;;15.20;;
72761;SDS011;60886;55.034;73.150;2022-10-16T03:02:30;31.30;;;17.05;;
72761;SDS011;60886;55.034;73.150;2022-10-16T03:04:57;31.25;;;17.88;;
72761;SDS011;60886;55.034;73.150;2022-10-16T03:07:23;29.63;;;17.63;;
72761;SDS011;60886;55.034;73.150;2022-10-16T03:09:49;33.47;;;16.37;;
72761;SDS011;60886;55.034;73.150;2022-10-16T03:12:16;29.15;;;13.15;;
72761;SDS011;60886;55.034;73.150;2022-10-16T03:14:42;25.67;;;12.55;;
72761;SDS011;60886;55.034;73.150;2022-10-16T03:17:08;31.83;;;12.45;;
72761;SDS011;60886;55.034;73.150;2022-10-16T03:19:35;28.38;;;12.40;;
72761;SDS011;60886;55.034;73.150;2022-10-16T03:22:11;24.03;;;11.60;;
72761;SDS011;60886;55.034;73.150;2022-10-16T03:24:38;28.05;;;12.55;;
72761;SDS011;60886;55.034;73.150;2022-10-16T03:27:04;26.05;;;12.60;;
72761;SDS011;60886;55.034;73.150;2022-10-16T03:29:32;24.65;;;12.73;;
72761;SDS011;60886;55.034;73.150;2022-10-16T03:31:59;26.50;;;13.05;;
72761;SDS011;60886;55.034;73.150;2022-10-16T03:34:25;26.70;;;12.73;;
72761;SDS011;60886;55.034;73.150;2022-10-16T03:36:52;25.80;;;11.95;;
72761;SDS011;60886;55.034;73.150;2022-10-16T03:39:18;25.45;;;11.95;;
72761;SDS011;60886;55.034;73.150;2022-10-16T03:41:44;25.33;;;12.15;;
72761;SDS011;60886;55.034;73.150;2022-10-16T03:44:12;27.15;;;12.70;;
72761;SDS011;60886;55.034;73.150;2022-10-16T03:46:39;24.10;;;12.63;;
72761;SDS011;60886;55.034;73.150;2022-10-16T03:49:05;24.90;;;13.02;;
72761;SDS011;60886;55.034;73.150;2022-10-16T03:51:31;23.05;;;12.98;;
72761;SDS011;60886;55.034;73.150;2022-10-16T03:53:57;25.48;;;12.88;;
72761;SDS011;60886;55.034;73.150;2022-10-16T03:56:25;26.98;;;13.13;;
72761;SDS011;60886;55.034;73.150;2022-10-16T03:58:51;26.60;;;13.90;;
72761;SDS011;60886;55.034;73.150;2022-10-16T04:01:18;31.42;;;15.18;;
72761;SDS011;60886;55.034;73.150;2022-10-16T04:03:51;30.08;;;13.82;;
72761;SDS011;60886;55.034;73.150;2022-10-16T04:06:17;31.98;;;15.35;;
72761;SDS011;60886;55.034;73.150;2022-10-16T04:08:48;34.00;;;16.08;;
72761;SDS011;60886;55.034;73.150;2022-10-16T04:11:15;35.13;;;16.33;;
72761;SDS011;60886;55.034;73.150;2022-10-16T04:13:41;37.50;;;17.52;;
72761;SDS011;60886;55.034;73.150;2022-10-16T04:16:08;32.10;;;16.33;;
72761;SDS011;60886;55.034;73.150;2022-10-16T04:18:35;29.67;;;16.80;;
72761;SDS011;60886;55.034;73.150;2022-10-16T04:21:02;29.27;;;16.20;;
72761;SDS011;60886;55.034;73.150;2022-10-16T04:23:29;28.23;;;15.83;;
72761;SDS011;60886;55.034;73.150;2022-10-16T04:25:56;25.85;;;14.98;;
72761;SDS011;60886;55.034;73.150;2022-10-16T04:28:23;28.23;;;15.30;;
72761;SDS011;60886;55.034;73.150;2022-10-16T04:30:49;26.92;;;14.18;;
72761;SDS011;60886;55.034;73.150;2022-10-16T04:33:15;25.70;;;14.05;;
72761;SDS011;60886;55.034;73.150;2022-10-16T04:35:42;24.03;;;13.63;;
72761;SDS011;60886;55.034;73.150;2022-10-16T04:38:08;26.50;;;13.63;;
72761;SDS011;60886;55.034;73.150;2022-10-16T04:40:34;26.15;;;13.95;;
72761;SDS011;60886;55.034;73.150;2022-10-16T04:43:04;22.50;;;12.50;;
72761;SDS011;60886;55.034;73.150;2022-10-16T04:45:31;24.80;;;13.07;;
72761;SDS011;60886;55.034;73.150;2022-10-16T04:47:58;24.10;;;13.07;;
72761;SDS011;60886;55.034;73.150;2022-10-16T04:50:29;24.02;;;12.43;;
72761;SDS011;60886;55.034;73.150;2022-10-16T04:53:05;24.35;;;12.98;;
72761;SDS011;60886;55.034;73.150;2022-10-16T04:55:32;23.88;;;13.27;;
72761;SDS011;60886;55.034;73.150;2022-10-16T04:58:09;23.52;;;13.52;;
72761;SDS011;60886;55.034;73.150;2022-10-16T05:00:40;27.17;;;13.47;;
72761;SDS011;60886;55.034;73.150;2022-10-16T05:03:06;26.27;;;13.45;;
72761;SDS011;60886;55.034;73.150;2022-10-16T05:05:34;24.00;;;13.95;;
72761;SDS011;60886;55.034;73.150;2022-10-16T05:08:02;26.52;;;13.50;;
72761;SDS011;60886;55.034;73.150;2022-10-16T05:10:28;23.58;;;13.02;;
72761;SDS011;60886;55.034;73.150;2022-10-16T05:12:54;24.60;;;13.33;;
72761;SDS011;60886;55.034;73.150;2022-10-16T05:15:21;23.67;;;13.13;;
72761;SDS011;60886;55.034;73.150;2022-10-16T05:17:52;21.77;;;12.27;;
72761;SDS011;60886;55.034;73.150;2022-10-16T05:20:19;25.15;;;14.02;;
72761;SDS011;60886;55.034;73.150;2022-10-16T05:22:46;26.13;;;13.65;;
72761;SDS011;60886;55.034;73.150;2022-10-16T05:25:12;24.90;;;14.00;;
72761;SDS011;60886;55.034;73.150;2022-10-16T05:27:38;25.83;;;13.43;;
72761;SDS011;60886;55.034;73.150;2022-10-16T05:30:05;29.73;;;14.55;;
72761;SDS011;60886;55.034;73.150;2022-10-16T05:32:32;23.67;;;12.07;;
72761;SDS011;60886;55.034;73.150;2022-10-16T05:34:58;23.65;;;12.45;;
72761;SDS011;60886;55.034;73.150;2022-10-16T05:37:27;21.02;;;11.35;;
72761;SDS011;60886;55.034;73.150;2022-10-16T05:39:53;22.83;;;12.38;;
72761;SDS011;60886;55.034;73.150;2022-10-16T05:42:19;23.73;;;13.50;;
72761;SDS011;60886;55.034;73.150;2022-10-16T05:44:46;20.25;;;11.25;;
72761;SDS011;60886;55.034;73.150;2022-10-16T05:47:12;21.23;;;11.60;;
72761;SDS011;60886;55.034;73.150;2022-10-16T05:49:40;21.73;;;11.32;;
72761;SDS011;60886;55.034;73.150;2022-10-16T05:52:06;20.65;;;10.25;;
72761;SDS011;60886;55.034;73.150;2022-10-16T05:54:32;20.20;;;10.27;;
72761;SDS011;60886;55.034;73.150;2022-10-16T05:56:59;18.73;;;9.60;;
72761;SDS011;60886;55.034;73.150;2022-10-16T05:59:25;19.38;;;9.50;;
72761;SDS011;60886;55.034;73.150;2022-10-16T06:01:51;15.97;;;9.23;;
72761;SDS011;60886;55.034;73.150;2022-10-16T06:04:19;16.42;;;9.35;;
72761;SDS011;60886;55.034;73.150;2022-10-16T06:06:45;19.10;;;9.05;;
72761;SDS011;60886;55.034;73.150;2022-10-16T06:09:11;16.17;;;8.30;;
72761;SDS011;60886;55.034;73.150;2022-10-16T06:11:38;15.18;;;7.97;;
72761;SDS011;60886;55.034;73.150;2022-10-16T06:14:04;16.73;;;7.73;;
72761;SDS011;60886;55.034;73.150;2022-10-16T06:16:33;14.75;;;7.88;;
72761;SDS011;60886;55.034;73.150;2022-10-16T06:19:00;14.65;;;7.32;;
72761;SDS011;60886;55.034;73.150;2022-10-16T06:21:28;14.82;;;7.28;;
72761;SDS011;60886;55.034;73.150;2022-10-16T06:23:55;13.68;;;6.25;;
72761;SDS011;60886;55.034;73.150;2022-10-16T06:26:23;12.48;;;6.38;;
72761;SDS011;60886;55.034;73.150;2022-10-16T06:28:51;13.07;;;6.25;;
72761;SDS011;60886;55.034;73.150;2022-10-16T06:31:19;15.43;;;6.97;;
72761;SDS011;60886;55.034;73.150;2022-10-16T06:33:49;13.10;;;6.38;;
72761;SDS011;60886;55.034;73.150;2022-10-16T06:36:16;14.13;;;6.55;;
72761;SDS011;60886;55.034;73.150;2022-10-16T06:38:44;12.93;;;6.30;;
72761;SDS011;60886;55.034;73.150;2022-10-16T06:41:14;11.88;;;5.50;;
72761;SDS011;60886;55.034;73.150;2022-10-16T06:43:42;12.80;;;5.90;;
72761;SDS011;60886;55.034;73.150;2022-10-16T06:46:11;13.02;;;5.60;;
72761;SDS011;60886;55.034;73.150;2022-10-16T06:48:39;16.05;;;7.05;;
72761;SDS011;60886;55.034;73.150;2022-10-16T06:51:11;18.27;;;9.45;;
72761;SDS011;60886;55.034;73.150;2022-10-16T06:53:41;14.30;;;6.80;;
72761;SDS011;60886;55.034;73.150;2022-10-16T06:56:15;13.38;;;5.25;;
72761;SDS011;60886;55.034;73.150;2022-10-16T06:58:46;14.10;;;6.05;;
72761;SDS011;60886;55.034;73.150;2022-10-16T07:01:18;16.40;;;6.85;;
72761;SDS011;60886;55.034;73.150;2022-10-16T07:03:46;15.27;;;6.28;;
72761;SDS011;60886;55.034;73.150;2022-10-16T07:06:13;10.05;;;4.40;;
72761;SDS011;60886;55.034;73.150;2022-10-16T07:08:42;13.43;;;4.82;;
72761;SDS011;60886;55.034;73.150;2022-10-16T07:11:20;13.15;;;6.13;;
72761;SDS011;60886;55.034;73.150;2022-10-16T07:13:48;32.60;;;13.98;;
72761;SDS011;60886;55.034;73.150;2022-10-16T07:16:17;31.95;;;15.63;;
72761;SDS011;60886;55.034;73.150;2022-10-16T07:18:46;30.08;;;13.52;;
72761;SDS011;60886;55.034;73.150;2022-10-16T07:21:20;15.90;;;7.82;;
72761;SDS011;60886;55.034;73.150;2022-10-16T07:23:53;12.70;;;6.13;;
72761;SDS011;60886;55.034;73.150;2022-10-16T07:26:22;13.02;;;6.20;;
72761;SDS011;60886;55.034;73.150;2022-10-16T07:28:49;14.20;;;6.43;;
72761;SDS011;60886;55.034;73.150;2022-10-16T07:31:16;17.60;;;7.25;;
72761;SDS011;60886;55.034;73.150;2022-10-16T07:33:44;24.65;;;11.38;;
72761;SDS011;60886;55.034;73.150;2022-10-16T07:36:12;21.70;;;10.82;;
72761;SDS011;60886;55.034;73.150;2022-10-16T07:38:38;16.85;;;8.73;;
72761;SDS011;60886;55.034;73.150;2022-10-16T07:41:06;15.15;;;7.90;;
72761;SDS011;60886;55.034;73.150;2022-10-16T07:43:34;16.48;;;7.20;;
72761;SDS011;60886;55.034;73.150;2022-10-16T07:46:01;13.45;;;6.40;;
72761;SDS011;60886;55.034;73.150;2022-10-16T07:48:29;12.77;;;6.70;;
72761;SDS011;60886;55.034;73.150;2022-10-16T07:50:58;15.15;;;6.65;;
72761;SDS011;60886;55.034;73.150;2022-10-16T07:53:26;12.98;;;6.65;;
72761;SDS011;60886;55.034;73.150;2022-10-16T07:55:57;13.60;;;6.60;;
72761;SDS011;60886;55.034;73.150;2022-10-16T07:58:24;17.85;;;8.90;;
72761;SDS011;60886;55.034;73.150;2022-10-16T08:01:03;24.10;;;10.88;;
72761;SDS011;60886;55.034;73.150;2022-10-16T08:03:31;18.10;;;8.65;;
72761;SDS011;60886;55.034;73.150;2022-10-16T08:05:57;15.50;;;6.97;;
72761;SDS011;60886;55.034;73.150;2022-10-16T08:08:24;9.45;;;4.57;;
72761;SDS011;60886;55.034;73.150;2022-10-16T08:10:51;9.90;;;4.50;;
72761;SDS011;60886;55.034;73.150;2022-10-16T08:13:17;10.40;;;4.15;;
72761;SDS011;60886;55.034;73.150;2022-10-16T08:15:44;10.30;;;4.30;;
72761;SDS011;60886;55.034;73.150;2022-10-16T08:18:12;11.60;;;4.40;;
72761;SDS011;60886;55.034;73.150;2022-10-16T08:20:40;10.27;;;5.22;;
72761;SDS011;60886;55.034;73.150;2022-10-16T08:23:07;12.25;;;5.78;;
72761;SDS011;60886;55.034;73.150;2022-10-16T08:25:44;8.52;;;3.30;;
72761;SDS011;60886;55.034;73.150;2022-10-16T08:28:10;7.32;;;3.08;;
72761;SDS011;60886;55.034;73.150;2022-10-16T08:30:37;9.13;;;3.58;;
72761;SDS011;60886;55.034;73.150;2022-10-16T08:33:09;6.97;;;3.10;;
72761;SDS011;60886;55.034;73.150;2022-10-16T08:35:37;7.80;;;3.38;;
72761;SDS011;60886;55.034;73.150;2022-10-16T08:38:03;8.85;;;3.35;;
72761;SDS011;60886;55.034;73.150;2022-10-16T08:40:31;13.35;;;5.82;;
72761;SDS011;60886;55.034;73.150;2022-10-16T08:48:30;7.30;;;2.40;;
72761;SDS011;60886;55.034;73.150;2022-10-16T08:51:21;9.18;;;2.65;;
72761;SDS011;60886;55.034;73.150;2022-10-16T08:53:54;9.07;;;3.10;;
72761;SDS011;60886;55.034;73.150;2022-10-16T08:56:23;9.38;;;2.85;;
72761;SDS011;60886;55.034;73.150;2022-10-16T08:58:51;6.88;;;2.63;;
72761;SDS011;60886;55.034;73.150;2022-10-16T09:01:19;7.82;;;2.45;;
72761;SDS011;60886;55.034;73.150;2022-10-16T09:20:49;7.20;;;2.90;;
72761;SDS011;60886;55.034;73.150;2022-10-16T09:25:55;9.85;;;3.42;;
72761;SDS011;60886;55.034;73.150;2022-10-16T09:28:22;7.75;;;2.95;;
72761;SDS011;60886;55.034;73.150;2022-10-16T09:30:49;8.65;;;3.00;;
72761;SDS011;60886;55.034;73.150;2022-10-16T09:33:17;6.53;;;2.80;;
72761;SDS011;60886;55.034;73.150;2022-10-16T09:35:47;7.57;;;3.00;;
72761;SDS011;60886;55.034;73.150;2022-10-16T09:40:53;7.75;;;2.72;;
72761;SDS011;60886;55.034;73.150;2022-10-16T09:46:04;7.10;;;2.80;;
72761;SDS011;60886;55.034;73.150;2022-10-16T09:48:51;8.48;;;3.20;;
72761;SDS011;60886;55.034;73.150;2022-10-16T09:54:35;8.35;;;3.20;;
72761;SDS011;60886;55.034;73.150;2022-10-16T09:56:43;8.45;;;3.00;;
72761;SDS011;60886;55.034;73.150;2022-10-16T09:59:23;8.77;;;3.45;;
72761;SDS011;60886;55.034;73.150;2022-10-16T10:01:54;10.25;;;4.45;;
72761;SDS011;60886;55.034;73.150;2022-10-16T10:04:22;9.85;;;4.72;;
72761;SDS011;60886;55.034;73.150;2022-10-16T10:06:52;9.02;;;4.13;;
72761;SDS011;60886;55.034;73.150;2022-10-16T10:09:27;10.15;;;4.30;;
72761;SDS011;60886;55.034;73.150;2022-10-16T10:12:23;9.27;;;3.83;;
72761;SDS011;60886;55.034;73.150;2022-10-16T10:14:51;8.85;;;3.95;;
72761;SDS011;60886;55.034;73.150;2022-10-16T10:17:30;9.10;;;4.00;;
72761;SDS011;60886;55.034;73.150;2022-10-16T10:19:58;8.75;;;3.33;;
72761;SDS011;60886;55.034;73.150;2022-10-16T10:22:44;7.85;;;2.40;;
72761;SDS011;60886;55.034;73.150;2022-10-16T10:27:45;5.65;;;1.88;;
72761;SDS011;60886;55.034;73.150;2022-10-16T10:30:39;6.57;;;2.35;;
72761;SDS011;60886;55.034;73.150;2022-10-16T10:35:56;7.35;;;2.95;;
72761;SDS011;60886;55.034;73.150;2022-10-16T11:01:07;9.07;;;3.78;;
72761;SDS011;60886;55.034;73.150;2022-10-16T11:08:51;9.32;;;4.28;;
72761;SDS011;60886;55.034;73.150;2022-10-16T11:11:29;8.05;;;3.50;;
72761;SDS011;60886;55.034;73.150;2022-10-16T11:22:32;35.15;;;16.85;;
72761;SDS011;60886;55.034;73.150;2022-10-16T11:25:15;14.40;;;7.00;;
72761;SDS011;60886;55.034;73.150;2022-10-16T11:27:52;13.40;;;6.43;;
72761;SDS011;60886;55.034;73.150;2022-10-16T11:30:27;12.05;;;5.95;;
72761;SDS011;60886;55.034;73.150;2022-10-16T11:38:29;13.40;;;7.20;;
72761;SDS011;60886;55.034;73.150;2022-10-16T11:41:28;16.42;;;7.25;;
72761;SDS011;60886;55.034;73.150;2022-10-16T11:46:40;15.55;;;8.38;;
72761;SDS011;60886;55.034;73.150;2022-10-16T11:51:45;31.02;;;17.77;;
72761;SDS011;60886;55.034;73.150;2022-10-16T11:54:35;35.20;;;19.88;;
72761;SDS011;60886;55.034;73.150;2022-10-16T11:57:38;34.67;;;19.15;;
72761;SDS011;60886;55.034;73.150;2022-10-16T12:00:07;41.67;;;21.65;;
72761;SDS011;60886;55.034;73.150;2022-10-16T12:08:16;49.15;;;31.83;;
72761;SDS011;60886;55.034;73.150;2022-10-16T12:10:44;59.95;;;37.90;;
72761;SDS011;60886;55.034;73.150;2022-10-16T12:16:06;53.43;;;30.60;;
72761;SDS011;60886;55.034;73.150;2022-10-16T12:18:46;46.83;;;25.17;;
72761;SDS011;60886;55.034;73.150;2022-10-16T12:21:14;33.28;;;18.75;;
72761;SDS011;60886;55.034;73.150;2022-10-16T12:23:49;34.22;;;18.20;;
72761;SDS011;60886;55.034;73.150;2022-10-16T12:26:32;32.80;;;18.95;;
72761;SDS011;60886;55.034;73.150;2022-10-16T12:29:14;39.20;;;20.30;;
72761;SDS011;60886;55.034;73.150;2022-10-16T12:31:54;35.75;;;20.73;;
72761;SDS011;60886;55.034;73.150;2022-10-16T12:34:27;47.55;;;21.73;;
72761;SDS011;60886;55.034;73.150;2022-10-16T12:37:07;41.70;;;21.40;;
72761;SDS011;60886;55.034;73.150;2022-10-16T12:39:39;41.40;;;21.42;;
72761;SDS011;60886;55.034;73.150;2022-10-16T12:44:52;52.35;;;28.83;;
72761;SDS011;60886;55.034;73.150;2022-10-16T12:50:28;54.63;;;27.90;;
72761;SDS011;60886;55.034;73.150;2022-10-16T12:52:57;39.33;;;21.35;;
72761;SDS011;60886;55.034;73.150;2022-10-16T12:55:25;37.93;;;20.80;;
72761;SDS011;60886;55.034;73.150;2022-10-16T12:58:00;30.38;;;16.75;;
72761;SDS011;60886;55.034;73.150;2022-10-16T13:00:45;24.38;;;13.98;;
72761;SDS011;60886;55.034;73.150;2022-10-16T13:20:00;20.50;;;10.02;;
72761;SDS011;60886;55.034;73.150;2022-10-16T13:28:11;19.35;;;9.80;;
72761;SDS011;60886;55.034;73.150;2022-10-16T13:30:40;19.85;;;10.50;;
72761;SDS011;60886;55.034;73.150;2022-10-16T13:33:14;20.17;;;10.57;;
72761;SDS011;60886;55.034;73.150;2022-10-16T13:35:51;21.85;;;11.35;;
72761;SDS011;60886;55.034;73.150;2022-10-16T13:38:21;24.88;;;13.73;;
72761;SDS011;60886;55.034;73.150;2022-10-16T13:40:56;28.85;;;16.13;;
72761;SDS011;60886;55.034;73.150;2022-10-16T13:43:26;28.42;;;15.82;;
72761;SDS011;60886;55.034;73.150;2022-10-16T13:46:10;37.70;;;21.23;;
72761;SDS011;60886;55.034;73.150;2022-10-16T13:48:40;39.88;;;22.02;;
72761;SDS011;60886;55.034;73.150;2022-10-16T13:51:14;32.63;;;18.23;;
72761;SDS011;60886;55.034;73.150;2022-10-16T13:53:42;29.75;;;15.07;;
72761;SDS011;60886;55.034;73.150;2022-10-16T13:56:13;25.50;;;13.32;;
72761;SDS011;60886;55.034;73.150;2022-10-16T13:58:41;23.02;;;12.68;;
72761;SDS011;60886;55.034;73.150;2022-10-16T14:03:48;28.50;;;15.57;;
72761;SDS011;60886;55.034;73.150;2022-10-16T14:06:17;27.90;;;15.38;;
72761;SDS011;60886;55.034;73.150;2022-10-16T14:11:42;43.00;;;22.60;;
72761;SDS011;60886;55.034;73.150;2022-10-16T14:14:13;44.87;;;25.43;;
72761;SDS011;60886;55.034;73.150;2022-10-16T14:16:46;44.08;;;24.00;;
72761;SDS011;60886;55.034;73.150;2022-10-16T14:19:15;41.15;;;21.80;;
72761;SDS011;60886;55.034;73.150;2022-10-16T14:21:43;42.15;;;20.42;;
72761;SDS011;60886;55.034;73.150;2022-10-16T14:24:11;41.28;;;19.75;;
72761;SDS011;60886;55.034;73.150;2022-10-16T14:26:44;39.70;;;20.57;;
72761;SDS011;60886;55.034;73.150;2022-10-16T14:29:14;45.03;;;20.75;;
72761;SDS011;60886;55.034;73.150;2022-10-16T14:31:55;45.92;;;22.55;;
72761;SDS011;60886;55.034;73.150;2022-10-16T14:37:00;41.42;;;21.90;;
72761;SDS011;60886;55.034;73.150;2022-10-16T14:39:35;45.50;;;22.50;;
72761;SDS011;60886;55.034;73.150;2022-10-16T14:42:14;41.50;;;21.13;;
72761;SDS011;60886;55.034;73.150;2022-10-16T14:44:43;42.30;;;21.17;;
72761;SDS011;60886;55.034;73.150;2022-10-16T14:47:12;40.88;;;21.20;;
72761;SDS011;60886;55.034;73.150;2022-10-16T14:49:42;39.13;;;20.08;;
72761;SDS011;60886;55.034;73.150;2022-10-16T14:52:10;37.23;;;19.43;;
72761;SDS011;60886;55.034;73.150;2022-10-16T14:54:38;39.05;;;19.25;;
72761;SDS011;60886;55.034;73.150;2022-10-16T14:57:04;43.22;;;20.88;;
72761;SDS011;60886;55.034;73.150;2022-10-16T14:59:40;44.40;;;20.88;;
72761;SDS011;60886;55.034;73.150;2022-10-16T15:04:46;51.60;;;24.20;;
72761;SDS011;60886;55.034;73.150;2022-10-16T15:07:13;47.03;;;25.63;;
72761;SDS011;60886;55.034;73.150;2022-10-16T15:09:39;48.83;;;25.88;;
72761;SDS011;60886;55.034;73.150;2022-10-16T15:12:05;47.85;;;24.15;;
72761;SDS011;60886;55.034;73.150;2022-10-16T15:14:32;43.58;;;24.05;;
72761;SDS011;60886;55.034;73.150;2022-10-16T15:16:58;44.23;;;22.57;;
72761;SDS011;60886;55.034;73.150;2022-10-16T15:19:24;44.70;;;23.15;;
72761;SDS011;60886;55.034;73.150;2022-10-16T15:21:51;41.58;;;22.63;;
72761;SDS011;60886;55.034;73.150;2022-10-16T15:24:22;43.22;;;22.35;;
72761;SDS011;60886;55.034;73.150;2022-10-16T15:26:48;43.78;;;23.95;;
72761;SDS011;60886;55.034;73.150;2022-10-16T15:29:15;48.47;;;24.77;;
72761;SDS011;60886;55.034;73.150;2022-10-16T15:31:42;50.47;;;26.70;;
72761;SDS011;60886;55.034;73.150;2022-10-16T15:34:18;47.05;;;24.88;;
72761;SDS011;60886;55.034;73.150;2022-10-16T15:36:49;40.92;;;20.98;;
72761;SDS011;60886;55.034;73.150;2022-10-16T15:39:16;32.03;;;17.20;;
72761;SDS011;60886;55.034;73.150;2022-10-16T15:41:46;28.65;;;12.82;;
72761;SDS011;60886;55.034;73.150;2022-10-16T15:44:20;12.93;;;5.80;;
72761;SDS011;60886;55.034;73.150;2022-10-16T15:46:48;10.38;;;4.50;;
72761;SDS011;60886;55.034;73.150;2022-10-16T15:49:15;10.63;;;4.25;;
72761;SDS011;60886;55.034;73.150;2022-10-16T15:51:41;9.45;;;4.25;;
72761;SDS011;60886;55.034;73.150;2022-10-16T15:54:08;7.87;;;3.60;;
72761;SDS011;60886;55.034;73.150;2022-10-16T15:56:35;6.80;;;2.90;;
72761;SDS011;60886;55.034;73.150;2022-10-16T15:59:02;8.63;;;3.13;;
72761;SDS011;60886;55.034;73.150;2022-10-16T16:01:31;9.52;;;3.08;;
72761;SDS011;60886;55.034;73.150;2022-10-16T16:03:59;7.82;;;3.05;;
72761;SDS011;60886;55.034;73.150;2022-10-16T16:06:25;7.28;;;2.80;;
72761;SDS011;60886;55.034;73.150;2022-10-16T16:08:52;6.20;;;2.35;;
72761;SDS011;60886;55.034;73.150;2022-10-16T16:11:19;7.47;;;2.50;;
72761;SDS011;60886;55.034;73.150;2022-10-16T16:13:45;6.32;;;2.10;;
72761;SDS011;60886;55.034;73.150;2022-10-16T16:16:13;6.93;;;2.33;;
72761;SDS011;60886;55.034;73.150;2022-10-16T16:18:41;7.43;;;2.47;;
72761;SDS011;60886;55.034;73.150;2022-10-16T16:21:18;8.27;;;2.83;;
72761;SDS011;60886;55.034;73.150;2022-10-16T16:23:44;7.72;;;2.90;;
72761;SDS011;60886;55.034;73.150;2022-10-16T16:26:12;9.48;;;3.08;;
72761;SDS011;60886;55.034;73.150;2022-10-16T16:28:42;8.18;;;2.80;;
72761;SDS011;60886;55.034;73.150;2022-10-16T16:31:09;7.10;;;2.97;;
72761;SDS011;60886;55.034;73.150;2022-10-16T16:33:36;9.18;;;3.28;;
72761;SDS011;60886;55.034;73.150;2022-10-16T16:36:07;11.98;;;4.05;;
72761;SDS011;60886;55.034;73.150;2022-10-16T16:38:34;11.27;;;4.53;;
72761;SDS011;60886;55.034;73.150;2022-10-16T16:41:22;13.43;;;4.93;;
72761;SDS011;60886;55.034;73.150;2022-10-16T16:43:49;10.90;;;4.60;;
72761;SDS011;60886;55.034;73.150;2022-10-16T16:46:26;12.82;;;5.05;;
72761;SDS011;60886;55.034;73.150;2022-10-16T16:48:53;13.57;;;5.10;;
72761;SDS011;60886;55.034;73.150;2022-10-16T16:51:21;13.02;;;5.43;;
72761;SDS011;60886;55.034;73.150;2022-10-16T16:53:49;12.77;;;5.10;;
72761;SDS011;60886;55.034;73.150;2022-10-16T16:56:17;13.07;;;5.10;;
72761;SDS011;60886;55.034;73.150;2022-10-16T16:58:45;11.52;;;4.63;;
72761;SDS011;60886;55.034;73.150;2022-10-16T17:01:16;12.15;;;5.22;;